Huang, Zheng-Long
ChinaManBorn 19862023 – 2025Runner id 2131789
Events
32
30 race dates
Best pace
11.446
km/h · 2024
Best finish
1st
of 172 · 2024
Distance raced
3,246
km · splits not double-counted
Pace over time
30 of 32 results · km/h
Pace over time: 30 races from 2023 to 2025, ranging from 0.76 to 11.60 kilometres per hour, where higher is faster. A second, age-graded series is drawn above it; the gap between the two is the age credit.
- Actual pace
- Age-graded pace
2 results are not on this chart. They are counted in every statistic above and listed in full below — backyard ultras carry a lap count instead of a pace, which is the number that means something in that format.
Results
| Date | Event | Distance | Result | Pace km/h | Placing |
|---|---|---|---|---|---|
| 2023-09-02 | 100km | 14:53:31 h | 6.715 | 7/181 | |
| 2023-09-23 | 100km | 14:09:49 h | 7.060 | 3/130 | |
| 2023-10-14 | 72km | 7:49:29 h | 9.202 | 4/153 | |
| 2023-10-20 | 100km | 15:51:48 h | 6.304 | 29/304 | |
| 2023-11-04 | 100km | 12:58:15 h | 7.710 | 1/123 | |
| 2023-11-11 | 109.2km | 16:54:59 h | 6.455 | 4/14 | |
| 2024-01-06 | 51h | 122.400 km | — | 1/18 | |
| 2024-01-06 | 51h | 214.200 km | — | 1/72 | |
| 2024-01-20 | Hong Kong 100 Ultra Trail RaceHong Kong | 100km | 13:38:05 h | 7.334 | 24/1096 |
| 2024-03-10 | Jinjiang 50China | 50km | 4:22:06 h | 11.446 | 12/760 |
| 2024-03-15 | 100km | 14:33:56 h | 6.866 | 1/170 | |
| 2024-05-18 | 100km | 12:33:09 h | 7.967 | 3/51 | |
| 2024-06-02 | 100km | 12:28:23 h | 8.017 | 5/78 | |
| 2024-06-08 | 100km | 11:38:15 h | 8.593 | 4/137 | |
| 2024-09-07 | 100km | 15:31:32 h | 6.441 | 6/99 | |
| 2024-11-09 | 100km | 14:28:13 h | 6.911 | 1/152 | |
| 2024-11-15 | 162km | 26:18:27 h | 6.158 | 1/172 | |
| 2024-12-14 | 100km | 10:01:34 h | 9.974 | 4/123 | |
| 2024-12-28 | 100km | 13:00:35 h | 7.687 | 14/535 | |
| 2025-01-06 | 6d | 110.000 km | 0.764 | 30/35 | |
| 2025-01-17 | 56km | 6:21:26 h | 8.809 | 34/822 | |
| 2025-01-18 | 100km | 12:09:54 h | 8.220 | 20/1512 | |
| 2025-08-23 | 100km | 13:59:28 h | 7.147 | 9/335 | |
| 2025-09-05 | 168km | 26:37:24 h | 6.310 | 3/70 | |
| 2025-09-13 | 100km | 14:21:35 h | 6.964 | 4/119 | |
| 2025-09-20 | 100km | 11:53:04 h | 8.414 | 5/245 | |
| 2025-09-27 | Chiangmai 24 Hr ChallengeThailand | 24h | 98.404 km | 4.100 | 51/76 |
| 2025-10-05 | 60km | 6:56:31 h | 8.643 | 2/233 | |
| 2025-10-18 | 66km | 7:39:41 h | 8.615 | 3/69 | |
| 2025-10-19 | 48km | 8:10:00 h | 5.878 | 19/92 | |
| 2025-10-25 | 110km | 17:14:50 h | 6.378 | 11/279 | |
| 2025-11-01 | 100km | 11:31:07 h | 8.682 | 2/101 |